Time;durP1;ratioP1;P1;durP2;ratioP2;P2;SDS_P1;SDS_P2;PMS_P1;PMS_P2;Temp;Humidity;BMP_temperature;BMP_pressure;BME280_temperature;BME280_humidity;BME280_pressure;Samples;Min_cycle;Max_cycle;Signal;HPM_P1;HPM_P2
2022/06/11 00:02:21;;;;;;;8.00;5.30;;;;;;;16.64;86.76;101965.94;5042245;28;20044;-82
2022/06/11 00:04:46;;;;;;;9.37;5.30;;;;;;;16.63;86.91;101971.66;5041858;28;20060;-82
2022/06/11 00:07:15;;;;;;;9.87;5.30;;;;;;;16.61;86.86;101971.88;5041277;28;21280;-82
2022/06/11 00:09:41;;;;;;;9.13;5.80;;;;;;;16.61;86.27;101974.59;5042629;28;20138;-82
2022/06/11 00:12:08;;;;;;;10.70;5.80;;;;;;;16.53;86.20;101969.44;5039807;28;20029;-82
2022/06/11 00:14:34;;;;;;;10.27;5.30;;;;;;;16.55;86.13;101970.06;5042018;28;20032;-82
2022/06/11 00:17:03;;;;;;;9.53;5.30;;;;;;;16.51;86.47;101971.56;5041454;28;20151;-82
2022/06/11 00:19:30;;;;;;;10.67;5.20;;;;;;;16.44;86.61;101974.34;5043019;28;20494;-82
2022/06/11 00:21:56;;;;;;;10.93;5.10;;;;;;;16.42;86.92;101972.91;5041540;28;20460;-82
2022/06/11 00:24:23;;;;;;;9.47;5.10;;;;;;;16.32;87.04;101962.44;5026633;28;20440;-82
2022/06/11 00:26:51;;;;;;;11.33;5.40;;;;;;;16.32;87.31;101965.16;5041169;28;20044;-82
2022/06/11 00:29:19;;;;;;;12.07;5.40;;;;;;;16.29;87.67;101969.22;5042147;28;20036;-82
2022/06/11 00:31:45;;;;;;;11.40;5.77;;;;;;;16.20;88.26;101959.59;5041630;28;20040;-82
2022/06/11 00:34:11;;;;;;;8.00;5.27;;;;;;;16.22;88.34;101964.84;5041981;28;20040;-82
2022/06/11 00:36:37;;;;;;;8.83;5.23;;;;;;;16.16;88.52;101972.06;5041644;28;20401;-82
2022/06/11 00:39:05;;;;;;;7.70;5.60;;;;;;;16.11;88.75;101969.97;5042597;28;20040;-82
2022/06/11 00:41:35;;;;;;;9.00;5.60;;;;;;;16.04;88.74;101961.81;5041591;28;20040;-82
2022/06/11 00:44:01;;;;;;;12.67;5.53;;;;;;;16.00;88.97;101955.09;5041959;28;20036;-82
2022/06/11 00:46:41;;;;;;;10.33;5.77;;;;;;;16.03;88.91;101956.56;5041272;28;21411;-82
2022/06/11 00:49:36;;;;;;;8.60;5.17;;;;;;;15.99;88.79;101958.94;5040991;28;20032;-82
2022/06/11 00:52:19;;;;;;;8.93;5.35;;;;;;;15.96;88.79;101964.81;5023498;28;20086;-82
2022/06/11 00:54:54;;;;;;;11.45;5.60;;;;;;;15.91;88.98;101956.47;5041868;28;20434;-82
2022/06/11 00:57:20;;;;;;;8.73;5.57;;;;;;;15.84;89.15;101952.91;5041277;28;20040;-82
2022/06/11 00:59:53;;;;;;;9.67;5.50;;;;;;;15.85;89.30;101957.31;5041958;28;20033;-82
2022/06/11 01:02:19;;;;;;;9.00;5.73;;;;;;;15.76;89.38;101947.69;5040715;28;20084;-82
2022/06/11 01:04:53;;;;;;;9.90;5.53;;;;;;;15.72;89.30;101955.50;5023679;28;20144;-82
2022/06/11 01:07:24;;;;;;;6.75;5.30;;;;;;;15.72;89.49;101952.75;5040966;28;20029;-82
2022/06/11 01:10:07;;;;;;;9.63;5.63;;;;;;;15.77;89.45;101963.03;5023658;28;20438;-82
2022/06/11 01:12:37;;;;;;;7.93;5.23;;;;;;;15.74;89.43;101960.75;5040670;28;20033;-81
2022/06/11 01:15:31;;;;;;;8.67;5.23;;;;;;;15.74;89.52;101955.28;5041979;28;20032;-82
2022/06/11 01:18:06;;;;;;;7.53;5.45;;;;;;;15.69;89.85;101961.38;5039083;28;20091;-82
2022/06/11 01:20:41;;;;;;;9.47;5.40;;;;;;;15.62;89.84;101950.47;5041106;28;20036;-82
2022/06/11 01:23:09;;;;;;;7.80;5.50;;;;;;;15.65;89.92;101958.25;5040486;28;21437;-82
2022/06/11 01:25:59;;;;;;;7.23;5.40;;;;;;;15.65;90.02;101958.25;5041185;28;20029;-82
2022/06/11 01:28:27;;;;;;;9.23;5.60;;;;;;;15.62;90.22;101953.22;5041072;28;20044;-82
2022/06/11 01:31:07;;;;;;;10.47;5.93;;;;;;;15.62;90.58;101958.69;5040338;28;20086;-82
2022/06/11 01:33:50;;;;;;;9.30;5.40;;;;;;;15.61;90.48;101951.56;5040464;28;20500;-82
2022/06/11 01:36:24;;;;;;;9.63;6.30;;;;;;;15.63;90.55;101954.06;5039848;28;20033;-82
2022/06/11 01:38:59;;;;;;;11.85;6.90;;;;;;;15.63;90.86;101954.91;5021821;28;20346;-82
2022/06/11 01:41:50;;;;;;;12.93;7.17;;;;;;;15.63;90.93;101954.91;5022896;28;20452;-82
2022/06/11 01:44:30;;;;;;;12.67;6.90;;;;;;;15.65;91.24;101957.41;5040343;28;20118;-81
2022/06/11 01:46:57;;;;;;;14.33;7.40;;;;;;;15.67;91.11;101955.31;5040398;28;20114;-81
2022/06/11 01:49:25;;;;;;;12.40;7.17;;;;;;;15.65;91.32;101950.06;5040734;28;20036;-81
2022/06/11 01:52:21;;;;;;;11.33;7.00;;;;;;;15.64;91.49;101953.00;5039056;28;20068;-81
2022/06/11 01:55:05;;;;;;;12.10;7.00;;;;;;;15.64;91.40;101951.13;5040996;28;20037;-81
2022/06/11 01:57:55;;;;;;;8.75;6.18;;;;;;;15.61;91.48;101950.69;5040355;28;20107;-83
2022/06/11 02:00:28;;;;;;;10.23;6.07;;;;;;;15.59;91.24;101948.19;5043004;28;20037;-82
2022/06/11 02:02:53;;;;;;;10.43;5.67;;;;;;;15.56;91.54;101962.28;5043422;28;20040;-82
2022/06/11 02:05:26;;;;;;;10.50;6.20;;;;;;;15.51;91.53;101945.72;5045254;28;20480;-82
2022/06/11 02:08:07;;;;;;;9.43;6.30;;;;;;;15.54;91.48;101948.00;5044912;28;20453;-82
2022/06/11 02:10:51;;;;;;;10.03;6.47;;;;;;;15.48;91.70;101948.91;5044691;28;20772;-82
2022/06/11 02:13:23;;;;;;;10.15;6.60;;;;;;;15.47;91.64;101958.97;5028980;28;20523;-82
2022/06/11 02:16:05;;;;;;;12.00;7.00;;;;;;;15.45;92.05;101949.31;5044884;28;20043;-82
2022/06/11 02:18:31;;;;;;;13.63;7.03;;;;;;;15.44;91.76;101955.84;5026169;28;20049;-82
2022/06/11 02:20:59;;;;;;;10.03;6.97;;;;;;;15.42;91.71;101957.94;5044154;28;20369;-83
2022/06/11 02:23:32;;;;;;;11.67;6.50;;;;;;;15.38;92.27;101956.69;5043800;28;20063;-81
2022/06/11 02:26:02;;;;;;;10.47;6.60;;;;;;;15.36;92.29;101949.56;5044432;28;20345;-81
2022/06/11 02:28:33;;;;;;;13.17;7.10;;;;;;;15.35;92.75;101955.25;5043315;28;20036;-82
2022/06/11 02:31:05;;;;;;;11.63;7.13;;;;;;;15.36;92.57;101949.56;5043029;28;20044;-81
2022/06/11 02:33:33;;;;;;;18.67;9.77;;;;;;;15.38;92.64;101957.56;5043785;28;20114;-81
2022/06/11 02:36:20;;;;;;;19.63;9.47;;;;;;;15.36;92.50;101960.47;5043896;28;20280;-82
2022/06/11 02:38:47;;;;;;;14.20;8.17;;;;;;;15.35;92.58;101964.28;5024108;28;20492;-82
2022/06/11 02:41:19;;;;;;;12.33;7.40;;;;;;;15.35;92.45;101968.91;5029304;28;20127;-82
2022/06/11 02:43:45;;;;;;;12.30;6.90;;;;;;;15.27;92.43;101956.34;5043414;28;20075;-82
2022/06/11 02:48:57;;;;;;;10.23;6.55;;;;;;;15.12;92.77;101953.03;5043349;28;20083;-82
2022/06/11 02:51:25;;;;;;;10.20;6.00;;;;;;;15.23;92.70;101976.94;5043811;28;20064;-82
2022/06/11 02:53:51;;;;;;;11.70;6.50;;;;;;;15.20;92.68;101980.06;5042906;28;20037;-82
2022/06/11 02:56:17;;;;;;;9.50;6.50;;;;;;;15.16;92.79;101976.09;5043335;28;20067;-81
2022/06/11 02:58:43;;;;;;;14.20;6.57;;;;;;;15.14;92.84;101975.50;5028034;28;20041;-81
2022/06/11 03:01:09;;;;;;;8.87;6.30;;;;;;;15.13;93.02;101982.00;5025621;28;20131;-82
2022/06/11 03:03:36;;;;;;;11.13;6.20;;;;;;;15.07;93.15;101982.84;5042772;28;20167;-82
2022/06/11 03:06:02;;;;;;;11.50;6.23;;;;;;;15.08;93.27;101990.00;5043408;28;20380;-81
2022/06/11 03:08:28;;;;;;;10.17;6.20;;;;;;;15.04;93.29;101995.06;5042813;28;20643;-82
2022/06/11 03:10:56;;;;;;;10.37;6.23;;;;;;;15.01;93.39;101990.84;5024916;28;20427;-82
2022/06/11 03:13:23;;;;;;;11.73;6.20;;;;;;;14.97;93.41;101996.94;5042381;28;20044;-82
2022/06/11 03:15:49;;;;;;;8.70;5.27;;;;;;;14.95;93.12;101997.16;5025786;28;20044;-82
2022/06/11 03:18:14;;;;;;;8.17;5.83;;;;;;;14.93;93.12;101998.41;5043077;28;20043;-82
2022/06/11 03:20:41;;;;;;;7.87;5.40;;;;;;;14.91;93.18;101993.19;5043032;28;20071;-82
2022/06/11 03:23:07;;;;;;;9.00;5.57;;;;;;;14.93;92.93;102002.00;5027884;28;20079;-82
2022/06/11 03:25:33;;;;;;;7.90;5.23;;;;;;;14.86;93.03;101995.69;5042464;28;20094;-82
2022/06/11 03:28:06;;;;;;;8.87;5.47;;;;;;;14.80;93.28;101991.09;5042506;28;20115;-82
2022/06/11 03:30:31;;;;;;;9.13;5.30;;;;;;;14.87;93.10;102008.28;5043222;28;20071;-82
2022/06/11 03:32:56;;;;;;;8.73;5.27;;;;;;;14.74;93.11;101992.78;5024733;28;21515;-82
2022/06/11 03:35:22;;;;;;;9.27;5.60;;;;;;;14.83;93.47;102005.13;5042650;28;20069;-82
2022/06/11 03:37:47;;;;;;;10.03;5.80;;;;;;;14.83;93.49;102007.03;5042500;28;20029;-82
2022/06/11 03:40:13;;;;;;;8.77;5.43;;;;;;;14.88;93.78;102018.16;5040775;28;20137;-82
2022/06/11 03:42:39;;;;;;;8.33;5.47;;;;;;;14.90;93.61;102016.06;5042559;28;20033;-82
2022/06/11 03:45:05;;;;;;;10.27;5.43;;;;;;;14.95;93.50;102018.16;5042494;28;20126;-82
2022/06/11 03:47:31;;;;;;;8.33;5.17;;;;;;;14.95;93.29;102012.69;5042526;28;20634;-82
2022/06/11 03:49:57;;;;;;;11.43;5.63;;;;;;;14.94;93.62;102020.03;5042210;28;20409;-82
2022/06/11 03:52:23;;;;;;;9.70;4.80;;;;;;;15.01;93.31;102025.47;5042297;28;20533;-82
2022/06/11 03:54:49;;;;;;;7.40;5.07;;;;;;;15.02;92.73;102030.72;5042554;28;20037;-82
2022/06/11 03:57:15;;;;;;;9.97;5.00;;;;;;;15.06;92.50;102030.31;5042274;28;21449;-82
2022/06/11 03:59:41;;;;;;;10.97;4.83;;;;;;;15.09;91.90;102036.16;5041564;28;20652;-82
2022/06/11 04:02:07;;;;;;;11.90;5.23;;;;;;;15.08;90.92;102025.47;5042599;28;20097;-81
2022/06/11 04:04:32;;;;;;;8.63;4.90;;;;;;;15.17;90.19;102037.84;5040455;28;20052;-82
2022/06/11 04:06:59;;;;;;;10.77;4.97;;;;;;;15.07;89.83;102021.06;5041841;28;20033;-82
2022/06/11 04:09:33;;;;;;;8.33;4.40;;;;;;;15.23;89.00;102047.94;5041796;28;20151;-82
2022/06/11 04:11:59;;;;;;;10.63;4.87;;;;;;;15.23;88.69;102037.00;5041916;28;20172;-82
2022/06/11 04:14:24;;;;;;;8.57;4.43;;;;;;;15.26;88.77;102046.63;5042053;28;20163;-82
2022/06/11 04:16:58;;;;;;;8.27;4.50;;;;;;;15.22;88.69;102042.66;5042057;28;20032;-81
2022/06/11 04:19:38;;;;;;;8.53;4.50;;;;;;;15.28;88.62;102047.28;5042001;28;20036;-82
2022/06/11 04:22:04;;;;;;;9.83;4.40;;;;;;;15.26;88.23;102047.50;5041350;28;20334;-82
2022/06/11 04:24:31;;;;;;;7.57;4.23;;;;;;;15.31;87.93;102055.03;5041028;28;20528;-82
2022/06/11 04:26:59;;;;;;;7.13;4.10;;;;;;;15.28;88.08;102055.47;5042366;28;20525;-82
2022/06/11 04:29:29;;;;;;;9.77;4.67;;;;;;;15.27;87.10;102051.91;5041293;28;20064;-83
2022/06/11 04:31:57;;;;;;;9.70;4.60;;;;;;;15.30;86.89;102059.66;5042234;28;20028;-82
2022/06/11 04:34:24;;;;;;;8.00;4.37;;;;;;;15.31;84.89;102061.34;5041545;28;20037;-82
2022/06/11 04:36:51;;;;;;;10.87;3.70;;;;;;;15.31;85.04;102064.06;5040882;28;22205;-82
2022/06/11 04:39:20;;;;;;;10.33;4.13;;;;;;;15.29;84.23;102063.44;5041518;28;20041;-82
2022/06/11 04:41:46;;;;;;;10.43;3.53;;;;;;;15.33;82.96;102064.69;5041554;28;20036;-82
2022/06/11 04:44:12;;;;;;;7.50;3.70;;;;;;;15.39;83.40;102078.53;5041388;28;20106;-82
2022/06/11 04:46:38;;;;;;;10.47;3.83;;;;;;;15.39;83.10;102073.91;5027452;28;20087;-82
2022/06/11 04:49:04;;;;;;;10.27;3.57;;;;;;;15.36;83.76;102072.44;5041520;28;20163;-82
2022/06/11 04:51:30;;;;;;;7.33;3.20;;;;;;;15.35;82.52;102070.78;5026734;28;20037;-82
2022/06/11 04:53:56;;;;;;;9.57;2.97;;;;;;;15.42;80.63;102075.38;5041018;28;20111;-82
2022/06/11 04:56:24;;;;;;;10.27;3.43;;;;;;;15.44;80.77;102076.00;5042064;28;20667;-82
2022/06/11 04:58:51;;;;;;;10.60;3.13;;;;;;;15.45;79.54;102077.66;5041029;28;20111;-82
2022/06/11 05:01:17;;;;;;;13.27;3.50;;;;;;;15.46;78.19;102077.47;5041237;28;20051;-82
2022/06/11 05:03:42;;;;;;;11.53;3.00;;;;;;;15.49;78.16;102077.03;5040769;28;20053;-81
2022/06/11 05:06:08;;;;;;;9.43;3.03;;;;;;;15.48;77.37;102069.06;5040636;28;20124;-81
2022/06/11 05:08:34;;;;;;;12.70;2.83;;;;;;;15.51;76.92;102074.09;5009139;28;20060;-83
2022/06/11 05:10:59;;;;;;;7.47;2.97;;;;;;;15.52;76.92;102082.06;5041876;28;20132;-83
2022/06/11 05:13:25;;;;;;;8.90;2.90;;;;;;;15.53;77.07;102069.28;5040555;28;20616;-82
2022/06/11 05:15:53;;;;;;;12.93;2.93;;;;;;;15.56;75.88;102079.75;5040933;28;20064;-83
2022/06/11 05:18:20;;;;;;;10.63;2.63;;;;;;;15.55;76.20;102069.88;5041576;28;20078;-82
2022/06/11 05:20:46;;;;;;;11.80;3.03;;;;;;;15.55;75.20;102079.97;5040919;28;20041;-82
2022/06/11 05:23:12;;;;;;;13.60;2.80;;;;;;;15.47;74.25;102070.94;5027397;28;20659;-82
2022/06/11 05:25:39;;;;;;;11.83;2.90;;;;;;;15.56;73.46;102084.38;5039574;28;20045;-83
2022/06/11 05:28:13;;;;;;;9.97;2.90;;;;;;;15.57;73.93;102088.78;5039697;28;20427;-82
2022/06/11 05:30:39;;;;;;;;;;;;;;;15.69;75.63;102089.78;5041251;28;20038;-83
2022/06/11 05:33:04;;;;;;;11.17;2.70;;;;;;;15.61;73.50;102084.56;5041294;28;20263;-82
2022/06/11 05:35:32;;;;;;;9.90;2.80;;;;;;;15.63;74.48;102091.50;5044493;28;20029;-82
2022/06/11 05:38:00;;;;;;;10.83;2.80;;;;;;;15.62;73.83;102088.97;5045288;28;20078;-82
2022/06/11 05:40:30;;;;;;;13.17;3.00;;;;;;;15.64;73.22;102092.31;5044356;28;20032;-83
2022/06/11 05:42:55;;;;;;;11.93;2.83;;;;;;;15.60;73.27;102088.34;5045599;28;20163;-82
2022/06/11 05:45:25;;;;;;;8.70;2.97;;;;;;;15.66;74.51;102082.03;5045188;28;20033;-82
2022/06/11 05:47:53;;;;;;;14.30;3.13;;;;;;;15.75;75.33;102083.47;5045238;28;20037;-82
2022/06/11 05:50:23;;;;;;;11.27;3.27;;;;;;;15.82;73.39;102086.22;5026613;28;20232;-82
2022/06/11 05:52:49;;;;;;;13.97;2.97;;;;;;;15.92;72.20;102083.84;5044447;28;20033;-82
2022/06/11 05:55:20;;;;;;;10.47;2.80;;;;;;;15.95;72.16;102090.75;5045262;28;20044;-83
2022/06/11 05:57:48;;;;;;;13.70;3.30;;;;;;;15.95;72.44;102093.50;5045030;28;20350;-82
2022/06/11 06:00:17;;;;;;;10.67;2.80;;;;;;;15.99;71.79;102094.75;5044768;28;20044;-83
2022/06/11 06:02:44;;;;;;;12.73;2.63;;;;;;;15.99;72.81;102087.41;5044479;28;20037;-81
2022/06/11 06:05:12;;;;;;;12.40;2.90;;;;;;;16.03;72.89;102096.84;5044448;28;20053;-82
2022/06/11 06:07:37;;;;;;;15.70;3.33;;;;;;;16.08;73.94;102098.06;5044617;28;20032;-81
2022/06/11 06:10:03;;;;;;;12.63;2.90;;;;;;;16.18;73.39;102092.97;5042830;28;20048;-82
2022/06/11 06:12:33;;;;;;;12.60;3.33;;;;;;;16.25;71.73;102092.91;5029403;28;20041;-82
2022/06/11 06:15:16;;;;;;;14.87;3.70;;;;;;;16.34;72.67;102089.69;5044303;28;20444;-82
2022/06/11 06:17:42;;;;;;;13.93;3.10;;;;;;;16.42;72.10;102088.63;5044367;28;20033;-82
2022/06/11 06:20:12;;;;;;;13.17;3.20;;;;;;;16.44;70.16;102102.91;5044519;28;20040;-82
2022/06/11 06:22:38;;;;;;;13.40;3.47;;;;;;;16.54;71.46;102096.97;5043947;28;20436;-81
2022/06/11 06:25:04;;;;;;;15.03;3.03;;;;;;;16.48;69.90;102104.16;5025815;28;20061;-82
2022/06/11 06:27:30;;;;;;;14.57;3.43;;;;;;;16.46;69.97;102114.47;5043649;28;20169;-82
2022/06/11 06:29:55;;;;;;;12.57;3.60;;;;;;;16.50;70.46;102112.97;5042674;28;20040;-83
2022/06/11 06:32:21;;;;;;;14.73;3.30;;;;;;;16.66;71.03;102111.59;5042121;28;20626;-83
2022/06/11 06:34:46;;;;;;;13.63;3.20;;;;;;;16.75;70.84;102108.59;5028352;28;20033;-83
2022/06/11 06:37:12;;;;;;;15.50;3.80;;;;;;;16.76;70.40;102105.63;5044346;28;20115;-82
2022/06/11 06:39:38;;;;;;;16.77;3.60;;;;;;;16.75;69.93;102106.69;5043594;28;20507;-84
2022/06/11 06:42:04;;;;;;;15.20;3.47;;;;;;;16.77;70.97;102117.41;5048091;28;20043;-83
2022/06/11 06:44:30;;;;;;;15.90;4.30;;;;;;;16.75;71.15;102135.97;5052996;28;20035;-83
2022/06/11 06:46:55;;;;;;;15.30;3.30;;;;;;;16.73;71.02;102127.97;5063675;28;20028;-83
2022/06/11 06:49:20;;;;;;;14.37;3.30;;;;;;;16.77;71.79;102122.88;5061731;28;20043;-83
2022/06/11 06:51:46;;;;;;;20.43;3.53;;;;;;;16.88;71.26;102127.66;5063663;28;20040;-84
2022/06/11 06:54:11;;;;;;;20.03;4.27;;;;;;;16.88;70.57;102122.19;5073303;28;20029;-83
2022/06/11 06:56:37;;;;;;;19.10;4.00;;;;;;;16.92;70.84;102111.63;5046155;28;20469;-84
2022/06/11 06:59:04;;;;;;;18.73;4.00;;;;;;;16.96;71.50;102115.59;5054060;28;20033;-83
2022/06/11 07:01:30;;;;;;;19.40;4.60;;;;;;;17.01;71.16;102116.63;5036970;28;20067;-82
2022/06/11 07:03:56;;;;;;;17.40;3.83;;;;;;;17.10;71.80;102110.88;5065847;28;20051;-82
2022/06/11 07:06:23;;;;;;;17.13;3.67;;;;;;;17.17;71.59;102125.31;5054730;28;20041;-82
2022/06/11 07:08:51;;;;;;;20.60;3.77;;;;;;;17.22;71.15;102114.53;5055463;28;20037;-83
2022/06/11 07:11:16;;;;;;;18.40;3.87;;;;;;;17.33;71.21;102122.00;5041767;28;21419;-82
2022/06/11 07:13:42;;;;;;;20.00;4.57;;;;;;;17.48;73.23;102115.31;5042818;28;20128;-83
2022/06/11 07:16:08;;;;;;;17.53;3.87;;;;;;;17.51;70.47;102112.13;5042639;28;20123;-82
2022/06/11 07:18:39;;;;;;;17.93;3.80;;;;;;;17.58;70.29;102104.66;5054985;28;20030;-82
2022/06/11 07:21:09;;;;;;;20.63;4.10;;;;;;;17.77;70.62;102126.59;5042857;28;20033;-83
2022/06/11 07:23:42;;;;;;;16.20;3.77;;;;;;;17.77;69.32;102121.94;5042169;28;20111;-83
2022/06/11 07:26:15;;;;;;;17.83;4.00;;;;;;;17.81;70.47;102120.41;5042014;28;20170;-82
2022/06/11 07:28:48;;;;;;;17.67;3.70;;;;;;;17.76;68.47;102111.22;5042424;28;20037;-82
2022/06/11 07:31:14;;;;;;;16.73;4.20;;;;;;;17.65;67.70;102108.19;5041747;28;20125;-84
2022/06/11 07:33:41;;;;;;;17.67;3.87;;;;;;;17.67;68.76;102114.25;5041797;28;20428;-82
2022/06/11 07:36:06;;;;;;;16.87;4.13;;;;;;;17.67;68.30;102118.91;5040575;28;20036;-82
2022/06/11 07:38:32;;;;;;;19.50;4.00;;;;;;;17.65;68.71;102113.66;5042215;28;20044;-83
2022/06/11 07:40:57;;;;;;;16.93;3.63;;;;;;;17.67;68.64;102113.44;5041014;28;20047;-82
2022/06/11 07:43:23;;;;;;;15.60;3.90;;;;;;;17.65;68.52;102112.81;5042027;28;20045;-82
2022/06/11 07:45:49;;;;;;;14.17;3.70;;;;;;;17.70;68.17;102099.25;5041980;28;20039;-83
2022/06/11 07:48:15;;;;;;;16.63;3.70;;;;;;;18.04;68.76;102111.50;5041688;28;20622;-83
2022/06/11 07:50:44;;;;;;;21.15;3.90;;;;;;;18.20;68.34;102122.94;5025003;28;20420;-83
2022/06/11 07:53:09;;;;;;;19.07;3.77;;;;;;;18.31;67.53;102122.13;5041644;28;20099;-83
2022/06/11 07:55:37;;;;;;;17.30;4.03;;;;;;;18.55;68.98;102125.78;5039130;28;20036;-83
2022/06/11 07:58:04;;;;;;;16.50;3.85;;;;;;;18.84;68.91;102125.13;5041093;28;20040;-82
2022/06/11 08:00:35;;;;;;;17.98;3.60;;;;;;;18.85;66.34;102135.06;5023706;28;20032;-82
2022/06/11 08:03:03;;;;;;;18.40;3.70;;;;;;;18.59;65.10;102128.06;5040892;28;20089;-82
2022/06/11 08:05:28;;;;;;;18.23;4.28;;;;;;;18.54;64.81;102117.78;5040359;28;20060;-83
2022/06/11 08:07:54;;;;;;;17.45;3.65;;;;;;;18.72;65.17;102130.59;5040901;28;20484;-83
2022/06/11 08:10:22;;;;;;;16.83;3.65;;;;;;;18.83;64.73;102128.94;5041881;28;20033;-83
2022/06/11 08:12:47;;;;;;;18.88;4.20;;;;;;;19.05;65.18;102132.00;5023543;28;20036;-83
2022/06/11 08:15:13;;;;;;;19.58;4.15;;;;;;;18.98;65.64;102131.28;5040972;28;20043;-83
2022/06/11 08:17:40;;;;;;;18.50;3.83;;;;;;;19.03;63.98;102137.72;5040449;28;20072;-83
2022/06/11 08:20:07;;;;;;;15.98;3.80;;;;;;;19.02;61.66;102138.78;5041583;28;20052;-82
2022/06/11 08:22:33;;;;;;;16.42;3.47;;;;;;;19.24;61.19;102140.97;5040226;28;20081;-82
2022/06/11 08:24:58;;;;;;;17.60;3.83;;;;;;;19.46;60.30;102140.34;5040625;28;20415;-82
2022/06/11 08:27:25;;;;;;;20.27;4.45;;;;;;;19.74;60.97;102137.69;5040340;28;20413;-82
2022/06/11 08:29:51;;;;;;;16.48;3.75;;;;;;;19.96;60.41;102153.56;5040356;28;20102;-82
2022/06/11 08:32:17;;;;;;;17.23;3.60;;;;;;;20.47;62.54;102158.44;5040891;28;20104;-81
2022/06/11 08:34:45;;;;;;;14.57;3.17;;;;;;;20.34;56.26;102165.88;5040017;28;20036;-82
2022/06/11 08:37:11;;;;;;;17.58;3.63;;;;;;;20.15;57.19;102148.72;5040939;28;20119;-82
2022/06/11 08:39:37;;;;;;;17.08;3.65;;;;;;;20.32;58.91;102170.81;5040560;28;20048;-82
2022/06/11 08:42:03;;;;;;;15.77;3.35;;;;;;;20.38;58.33;102167.06;5040440;28;20041;-83
2022/06/11 08:44:33;;;;;;;15.38;3.08;;;;;;;20.30;55.82;102175.72;5040051;28;20373;-82
2022/06/11 08:47:06;;;;;;;17.38;3.60;;;;;;;20.23;57.92;102162.09;5040692;28;20036;-83
2022/06/11 08:49:46;;;;;;;17.75;3.35;;;;;;;20.11;58.66;102163.22;5040661;28;20029;-80
2022/06/11 08:52:11;;;;;;;14.85;3.17;;;;;;;20.07;56.44;102157.38;5041057;28;20036;-81
2022/06/11 08:54:40;;;;;;;17.10;3.60;;;;;;;20.15;56.87;102161.66;5040918;28;20403;-81
2022/06/11 08:57:06;;;;;;;15.00;3.22;;;;;;;20.35;55.18;102163.97;5038280;28;20083;-81
2022/06/11 08:59:46;;;;;;;15.32;3.80;;;;;;;20.24;58.23;102162.94;5039946;28;20123;-81
2022/06/11 09:02:42;;;;;;;16.17;3.78;;;;;;;20.30;57.17;102169.38;5039669;28;20044;-82
2022/06/11 09:05:22;;;;;;;16.67;3.50;;;;;;;20.23;56.85;102175.03;5039420;28;20057;-82
2022/06/11 09:08:12;;;;;;;18.58;3.55;;;;;;;20.20;58.80;102154.34;5040361;28;20175;-81
2022/06/11 09:11:01;;;;;;;14.60;3.85;;;;;;;20.33;58.15;102152.38;5040290;28;20037;-82
2022/06/11 09:13:57;;;;;;;18.40;4.03;;;;;;;20.53;59.75;102151.94;5040313;28;20033;-83
2022/06/11 09:16:43;;;;;;;15.55;3.30;;;;;;;20.71;57.75;102153.66;5039910;28;20457;-83
2022/06/11 09:19:31;;;;;;;19.85;4.43;;;;;;;20.95;58.64;102156.28;5040847;28;20560;-83
2022/06/11 09:22:19;;;;;;;16.42;3.78;;;;;;;20.99;56.17;102160.19;5066804;28;20525;-83
2022/06/11 09:25:17;;;;;;;17.30;4.20;;;;;;;21.04;57.58;102163.03;5039468;28;20067;-84
2022/06/11 09:28:03;;;;;;;14.57;3.55;;;;;;;20.96;56.81;102160.72;5040804;28;20561;-82
2022/06/11 09:30:47;;;;;;;17.70;3.92;;;;;;;21.08;57.46;102159.53;5017794;28;20137;-83
2022/06/11 09:33:23;;;;;;;16.52;3.72;;;;;;;21.26;57.73;102163.09;5040946;28;20039;-83
2022/06/11 09:35:51;;;;;;;17.38;3.88;;;;;;;21.28;57.84;102155.41;5023763;28;20037;-83
2022/06/11 09:38:54;;;;;;;17.38;4.00;;;;;;;21.29;57.83;102156.25;5040043;28;20124;-83
2022/06/11 09:41:29;;;;;;;16.30;3.70;;;;;;;21.24;56.92;102157.00;5039981;28;20036;-84
2022/06/11 09:44:25;;;;;;;17.42;3.88;;;;;;;21.27;56.68;102164.78;5040775;28;20059;-82
2022/06/11 09:46:53;;;;;;;17.17;3.60;;;;;;;20.92;55.59;102172.19;5040050;28;20032;-84
2022/06/11 09:49:30;;;;;;;20.42;4.25;;;;;;;21.04;57.01;102157.53;5039155;28;20025;-84
2022/06/11 09:52:48;;;;;;;16.90;3.40;;;;;;;21.54;56.05;102164.09;5039212;28;20036;-83
2022/06/11 09:55:34;;;;;;;17.67;4.00;;;;;;;21.77;57.08;102160.25;5012222;28;20049;-84
2022/06/11 09:58:22;;;;;;;15.70;3.70;;;;;;;22.17;56.89;102172.09;5039990;28;20115;-84
2022/06/11 10:00:59;;;;;;;16.90;4.10;;;;;;;22.13;54.23;102162.66;5007130;28;20045;-83
2022/06/11 10:04:02;;;;;;;15.73;4.50;;;;;;;22.43;54.68;102160.25;5039961;28;20132;-84
2022/06/11 10:06:50;;;;;;;19.38;4.03;;;;;;;22.61;52.85;102158.22;5014613;28;20047;-82
2022/06/11 10:09:32;;;;;;;19.27;4.50;;;;;;;22.50;53.05;102168.34;5039561;28;20543;-83
2022/06/11 10:12:27;;;;;;;18.23;4.05;;;;;;;22.79;54.29;102161.69;5039084;28;20041;-84
2022/06/11 10:15:02;;;;;;;16.08;4.57;;;;;;;22.87;53.43;102145.47;5056592;28;20068;-82
2022/06/11 10:17:36;;;;;;;17.60;4.50;;;;;;;23.02;51.96;102160.50;5050024;28;20453;-80
2022/06/11 10:20:07;;;;;;;19.55;4.07;;;;;;;22.48;52.82;102164.16;5041457;28;20028;-82
2022/06/11 10:22:52;;;;;;;17.90;4.38;;;;;;;22.89;54.39;102167.34;5043375;28;20037;-82
2022/06/11 10:25:26;;;;;;;19.40;4.80;;;;;;;22.90;54.16;102149.63;5042967;28;20044;-83
2022/06/11 10:28:02;;;;;;;20.77;5.13;;;;;;;23.32;54.70;102162.69;5043046;28;20286;-82
2022/06/11 10:30:43;;;;;;;19.88;4.50;;;;;;;23.14;53.15;102155.66;5043201;28;20127;-83
2022/06/11 10:33:18;;;;;;;17.13;4.18;;;;;;;23.27;51.64;102162.69;5044055;28;20480;-82
2022/06/11 10:35:49;;;;;;;16.70;4.47;;;;;;;23.06;50.60;102170.75;5043495;28;20186;-82
2022/06/11 10:38:30;;;;;;;18.02;4.15;;;;;;;23.38;53.72;102158.88;5044128;28;20031;-82
2022/06/11 10:40:58;;;;;;;16.08;4.10;;;;;;;23.49;49.12;102161.72;5043878;28;20032;-82
2022/06/11 10:43:33;;;;;;;16.23;3.92;;;;;;;23.42;49.74;102168.31;5043640;28;20037;-83
2022/06/11 10:46:00;;;;;;;16.38;3.50;;;;;;;23.66;49.52;102156.81;5043624;28;20040;-82
2022/06/11 10:48:31;;;;;;;15.13;3.60;;;;;;;23.49;48.61;102158.94;5043907;28;20477;-81
2022/06/11 10:50:58;;;;;;;14.80;3.70;;;;;;;23.53;48.71;102165.63;5044210;28;20352;-82
2022/06/11 10:53:41;;;;;;;17.02;3.40;;;;;;;23.93;49.14;102161.41;5043662;28;20044;-83
2022/06/11 10:56:19;;;;;;;16.47;3.80;;;;;;;24.02;48.53;102158.97;5043588;28;20094;-82
2022/06/11 10:59:03;;;;;;;14.98;3.47;;;;;;;24.12;47.58;102160.94;5043001;28;20543;-82
2022/06/11 11:01:33;;;;;;;14.05;3.67;;;;;;;23.86;47.77;102161.63;5043915;28;20032;-83
2022/06/11 11:04:36;;;;;;;12.55;3.20;;;;;;;24.18;47.20;102157.06;5043902;28;20521;-83
2022/06/11 11:07:25;;;;;;;11.63;3.00;;;;;;;23.94;47.42;102155.59;5041395;28;20045;-81
2022/06/11 11:09:58;;;;;;;16.13;3.40;;;;;;;23.72;45.55;102152.97;5043859;28;20035;-82
2022/06/11 11:12:33;;;;;;;16.88;3.72;;;;;;;24.04;47.24;102162.28;5025356;28;20581;-83
2022/06/11 11:15:11;;;;;;;17.95;3.78;;;;;;;24.09;48.39;102160.34;5043187;28;20466;-82
2022/06/11 11:17:45;;;;;;;16.05;3.80;;;;;;;24.12;48.87;102169.22;5042572;28;20074;-83
2022/06/11 11:20:35;;;;;;;13.48;3.80;;;;;;;24.13;49.46;102168.13;5025751;28;20025;-84
2022/06/11 11:23:09;;;;;;;13.48;3.47;;;;;;;24.14;48.25;102150.41;5042784;28;20032;-82
2022/06/11 11:25:39;;;;;;;13.60;3.30;;;;;;;24.02;49.37;102145.94;5042594;28;20641;-82
2022/06/11 11:28:14;;;;;;;13.50;3.42;;;;;;;24.44;47.73;102155.19;5043272;28;20065;-85
2022/06/11 11:30:40;;;;;;;15.55;3.78;;;;;;;24.35;46.04;102135.50;5055835;28;20083;-80
2022/06/11 11:33:33;;;;;;;17.27;3.80;;;;;;;24.58;47.05;102147.19;5037305;28;20024;-83
2022/06/11 11:36:09;;;;;;;14.90;4.05;;;;;;;24.57;46.31;102142.72;5052565;28;20037;-82
2022/06/11 11:38:35;;;;;;;13.88;3.65;;;;;;;24.25;46.65;102146.56;5054738;28;20100;-82
2022/06/11 11:41:02;;;;;;;14.77;3.70;;;;;;;24.15;44.52;102135.44;5056658;28;20548;-81
2022/06/11 11:43:37;;;;;;;15.90;3.90;;;;;;;24.57;47.20;102151.91;5053653;28;20021;-80